Time;durP1;ratioP1;P1;durP2;ratioP2;P2;SDS_P1;SDS_P2;PMS_P1;PMS_P2;Temp;Humidity;BMP_temperature;BMP_pressure;BME280_temperature;BME280_humidity;BME280_pressure;Samples;Min_cycle;Max_cycle;Signal;HPM_P1;HPM_P2
2024/01/06 00:01:13;;;;;;;40.35;35.22;;;;;;;6.87;71.60;94724.84;5080465;28;20231;-73
2024/01/06 00:03:41;;;;;;;36.17;32.05;;;;;;;6.86;71.70;94712.25;5080504;28;20201;-73
2024/01/06 00:06:08;;;;;;;34.95;31.35;;;;;;;6.85;71.31;94705.97;5081062;28;20185;-73
2024/01/06 00:08:35;;;;;;;41.88;37.30;;;;;;;6.84;71.81;94698.09;5080729;28;20236;-73
2024/01/06 00:11:03;;;;;;;45.67;40.65;;;;;;;6.77;71.46;94706.84;5080528;28;20200;-73
2024/01/06 00:13:30;;;;;;;45.63;40.70;;;;;;;6.71;72.16;94714.47;5080760;28;20258;-73
2024/01/06 00:15:57;;;;;;;43.92;39.28;;;;;;;6.63;72.02;94731.00;5081029;28;20239;-73
2024/01/06 00:18:24;;;;;;;35.60;31.08;;;;;;;6.63;72.56;94734.53;5080906;28;20239;-73
2024/01/06 00:20:53;;;;;;;28.33;25.23;;;;;;;6.66;72.44;94730.34;5081050;28;20247;-73
2024/01/06 00:23:22;;;;;;;30.17;25.63;;;;;;;6.67;71.87;94727.25;5080304;28;20592;-72
2024/01/06 00:25:49;;;;;;;29.05;25.95;;;;;;;6.68;71.80;94728.06;5080070;28;20208;-72
2024/01/06 00:28:16;;;;;;;30.55;27.13;;;;;;;6.66;72.04;94728.41;5078090;28;20294;-73
2024/01/06 00:30:43;;;;;;;31.75;26.85;;;;;;;6.64;72.07;94740.81;5080519;28;20250;-73
2024/01/06 00:33:10;;;;;;;29.85;26.73;;;;;;;6.64;72.00;94751.78;5080585;28;20250;-74
2024/01/06 00:35:37;;;;;;;30.13;25.75;;;;;;;6.66;72.72;94730.34;5076815;28;20196;-74
2024/01/06 00:38:05;;;;;;;28.58;24.88;;;;;;;6.66;72.49;94741.31;5077904;28;20246;-74
2024/01/06 00:40:32;;;;;;;28.63;25.52;;;;;;;6.64;72.28;94738.88;5077310;28;20189;-74
2024/01/06 00:43:00;;;;;;;27.13;24.27;;;;;;;6.64;72.67;94732.59;5077748;28;20299;-73
2024/01/06 00:45:26;;;;;;;28.50;25.42;;;;;;;6.59;72.82;94721.84;5076939;28;20200;-73
2024/01/06 00:47:53;;;;;;;29.33;26.33;;;;;;;6.51;72.73;94707.91;5077124;28;20222;-73
2024/01/06 00:50:20;;;;;;;26.52;23.63;;;;;;;6.44;72.59;94710.38;5077202;28;20219;-71
2024/01/06 00:52:48;;;;;;;27.27;24.35;;;;;;;6.39;72.77;94727.03;5077160;28;20204;-72
2024/01/06 00:55:16;;;;;;;27.15;24.05;;;;;;;6.36;73.10;94724.16;5077102;28;20508;-72
2024/01/06 00:57:43;;;;;;;29.98;26.25;;;;;;;6.36;72.97;94729.63;5076912;28;20542;-71
2024/01/06 01:00:11;;;;;;;28.25;25.27;;;;;;;6.36;72.97;94730.44;5077302;28;20205;-71
2024/01/06 01:02:39;;;;;;;28.73;25.20;;;;;;;6.42;73.51;94709.09;5076656;28;20209;-73
2024/01/06 01:05:07;;;;;;;25.83;23.05;;;;;;;6.48;73.47;94721.47;5077592;28;20185;-73
2024/01/06 01:07:34;;;;;;;26.33;23.58;;;;;;;6.52;73.27;94725.13;5076007;28;20212;-72
2024/01/06 01:10:02;;;;;;;27.63;23.45;;;;;;;6.57;73.64;94703.00;5077129;28;20236;-73
2024/01/06 01:12:30;;;;;;;27.05;24.25;;;;;;;6.57;73.51;94699.47;5076197;28;20208;-73
2024/01/06 01:14:57;;;;;;;26.08;23.35;;;;;;;6.53;73.53;94710.28;5076157;28;20239;-73
2024/01/06 01:17:24;;;;;;;26.20;23.45;;;;;;;6.53;73.53;94701.28;5076970;28;20254;-73
2024/01/06 01:19:51;;;;;;;25.45;22.75;;;;;;;6.47;73.54;94701.50;5076231;28;20243;-73
2024/01/06 01:22:18;;;;;;;26.35;23.63;;;;;;;6.45;73.34;94694.75;5076533;28;20234;-73
2024/01/06 01:24:45;;;;;;;25.77;23.08;;;;;;;6.40;73.42;94703.97;5076545;28;20202;-73
2024/01/06 01:27:12;;;;;;;28.30;25.20;;;;;;;6.29;73.44;94715.66;5076670;28;20231;-73
2024/01/06 01:29:40;;;;;;;25.90;23.17;;;;;;;6.24;73.67;94714.72;5075597;28;20225;-73
2024/01/06 01:32:07;;;;;;;27.30;24.40;;;;;;;6.24;73.61;94708.44;5076601;28;20198;-73
2024/01/06 01:34:34;;;;;;;27.65;24.67;;;;;;;6.25;73.80;94701.84;5075733;28;20205;-71
2024/01/06 01:37:01;;;;;;;32.85;28.00;;;;;;;6.21;74.09;94698.97;5076413;28;20201;-71
2024/01/06 01:39:28;;;;;;;29.98;26.85;;;;;;;6.19;74.14;94694.97;5076148;28;20193;-72
2024/01/06 01:41:55;;;;;;;30.77;27.38;;;;;;;6.17;73.74;94692.56;5076381;28;20274;-72
2024/01/06 01:44:22;;;;;;;28.77;25.70;;;;;;;6.13;74.30;94677.13;5076232;28;20208;-72
2024/01/06 01:46:51;;;;;;;30.20;27.10;;;;;;;6.12;74.41;94691.94;5075370;28;20682;-72
2024/01/06 01:49:18;;;;;;;29.88;26.85;;;;;;;6.13;74.55;94677.91;5076587;28;20266;-72
2024/01/06 01:51:46;;;;;;;29.52;26.35;;;;;;;6.18;74.79;94687.88;5075989;28;20197;-72
2024/01/06 01:54:13;;;;;;;27.70;24.80;;;;;;;6.21;74.93;94666.09;5076100;28;20208;-72
2024/01/06 01:56:41;;;;;;;27.58;24.52;;;;;;;6.23;74.54;94680.25;5075850;28;20254;-72
2024/01/06 01:59:12;;;;;;;27.60;24.80;;;;;;;6.22;74.45;94688.81;5075227;28;20322;-72
2024/01/06 02:01:43;;;;;;;27.58;23.42;;;;;;;6.21;74.24;94674.31;5075434;28;20221;-72
2024/01/06 02:04:14;;;;;;;25.00;22.35;;;;;;;6.27;74.45;94683.91;5076220;28;20197;-73
2024/01/06 02:06:42;;;;;;;27.88;23.30;;;;;;;6.30;74.56;94671.50;5075797;28;20212;-74
2024/01/06 02:09:11;;;;;;;23.17;20.38;;;;;;;6.38;74.07;94659.66;5075674;28;20215;-73
2024/01/06 02:11:42;;;;;;;23.50;20.92;;;;;;;6.40;73.83;94651.91;5075144;28;20215;-73
2024/01/06 02:14:09;;;;;;;24.02;21.42;;;;;;;6.42;74.02;94646.88;5075229;28;20205;-73
2024/01/06 02:16:41;;;;;;;24.42;21.60;;;;;;;6.45;74.08;94656.38;5075501;28;20200;-72
2024/01/06 02:19:13;;;;;;;24.30;21.63;;;;;;;6.47;73.70;94656.84;5075029;28;20200;-72
2024/01/06 02:21:43;;;;;;;23.30;20.90;;;;;;;6.46;73.63;94653.31;5075943;28;20213;-73
2024/01/06 02:24:12;;;;;;;23.55;21.15;;;;;;;6.41;73.78;94641.75;5075552;28;20258;-72
2024/01/06 02:26:39;;;;;;;25.08;22.13;;;;;;;6.41;74.18;94631.59;5075795;28;20488;-72
2024/01/06 02:29:09;;;;;;;24.42;21.38;;;;;;;6.42;74.28;94635.13;5089389;28;20232;-72
2024/01/06 02:31:39;;;;;;;24.33;21.80;;;;;;;6.43;74.65;94629.34;5079018;28;20201;-72
2024/01/06 02:34:06;;;;;;;23.45;20.95;;;;;;;6.45;74.29;94623.50;5078591;28;20192;-72
2024/01/06 02:36:33;;;;;;;23.40;20.90;;;;;;;6.44;74.58;94621.91;5095973;28;20208;-72
2024/01/06 02:39:00;;;;;;;26.13;23.33;;;;;;;6.43;74.77;94618.38;5078624;28;20254;-72
2024/01/06 02:41:32;;;;;;;26.88;22.55;;;;;;;6.40;74.83;94616.31;5078587;28;20216;-73
2024/01/06 02:44:02;;;;;;;25.88;23.10;;;;;;;6.35;74.60;94610.22;5078995;28;20184;-72
2024/01/06 02:46:32;;;;;;;26.65;23.83;;;;;;;6.32;74.92;94619.94;5078012;28;20661;-73
2024/01/06 02:48:59;;;;;;;24.98;22.38;;;;;;;6.35;75.05;94615.72;5078305;28;20227;-73
2024/01/06 02:51:27;;;;;;;24.50;21.90;;;;;;;6.35;74.90;94610.22;5096059;28;20185;-73
2024/01/06 02:53:56;;;;;;;23.55;20.85;;;;;;;6.36;74.90;94604.44;5078455;28;20250;-72
2024/01/06 02:56:25;;;;;;;23.60;21.10;;;;;;;6.34;74.96;94595.72;5078229;28;20203;-72
2024/01/06 02:58:57;;;;;;;19.50;17.55;;;;;;;6.32;74.95;94595.28;5095168;28;20211;-72
2024/01/06 03:01:26;;;;;;;19.08;17.05;;;;;;;6.35;74.66;94600.06;5095175;28;20195;-72
2024/01/06 03:03:53;;;;;;;18.23;16.38;;;;;;;6.34;74.14;94593.00;5095348;28;20180;-72
2024/01/06 03:06:21;;;;;;;19.38;17.48;;;;;;;6.29;74.06;94600.63;5095239;28;20210;-72
2024/01/06 03:08:48;;;;;;;20.83;18.23;;;;;;;6.27;74.31;94598.22;5095275;28;20192;-72
2024/01/06 03:11:15;;;;;;;19.20;17.15;;;;;;;6.27;74.37;94592.75;5077477;28;20200;-72
2024/01/06 03:13:42;;;;;;;20.08;17.98;;;;;;;6.27;74.31;94590.81;5078287;28;20188;-72
2024/01/06 03:16:13;;;;;;;21.63;19.45;;;;;;;6.25;74.16;94587.63;5094808;28;20214;-73
2024/01/06 03:18:40;;;;;;;22.02;19.77;;;;;;;6.23;74.08;94586.34;5077506;28;20196;-73
2024/01/06 03:21:18;;;;;;;25.77;23.15;;;;;;;6.14;74.87;94580.16;5078223;28;20200;-73
2024/01/06 03:23:45;;;;;;;25.05;22.55;;;;;;;6.09;74.83;94583.09;5077784;28;20622;-72
2024/01/06 03:26:12;;;;;;;25.15;22.48;;;;;;;6.08;75.17;94586.97;5077913;28;20339;-72
2024/01/06 03:28:39;;;;;;;24.20;21.77;;;;;;;6.07;75.45;94583.44;5077421;28;20228;-73
2024/01/06 03:31:06;;;;;;;24.08;21.40;;;;;;;6.07;75.20;94588.91;5077527;28;20204;-73
2024/01/06 03:33:39;;;;;;;21.85;19.65;;;;;;;6.08;75.22;94589.72;5077271;28;20222;-73
2024/01/06 03:36:09;;;;;;;22.67;19.65;;;;;;;6.00;75.11;94589.44;5077249;28;20254;-73
2024/01/06 03:38:39;;;;;;;23.17;20.77;;;;;;;5.98;74.90;94588.19;5078397;28;20196;-73
2024/01/06 03:41:06;;;;;;;24.08;20.30;;;;;;;5.97;75.39;94581.91;5077217;28;20196;-73
2024/01/06 03:43:35;;;;;;;22.33;19.92;;;;;;;5.94;75.31;94581.78;5095432;28;20200;-73
2024/01/06 03:46:04;;;;;;;22.38;20.08;;;;;;;5.95;75.07;94581.44;5077813;28;20278;-73
2024/01/06 03:48:32;;;;;;;23.02;20.67;;;;;;;5.95;75.27;94577.88;5077897;28;20192;-73
2024/01/06 03:51:08;;;;;;;22.90;20.42;;;;;;;5.93;75.15;94571.97;5077175;28;20204;-73
2024/01/06 03:53:36;;;;;;;22.90;20.58;;;;;;;5.91;75.31;94577.72;5077866;28;20303;-73
2024/01/06 03:56:06;;;;;;;23.77;21.35;;;;;;;5.90;75.39;94580.81;5077721;28;20246;-72
2024/01/06 03:58:34;;;;;;;23.25;20.85;;;;;;;5.90;75.41;94581.63;5077033;28;20249;-72
2024/01/06 04:01:01;;;;;;;22.83;20.42;;;;;;;5.88;75.30;94583.06;5076970;28;20200;-72
2024/01/06 04:03:28;;;;;;;23.02;20.70;;;;;;;5.92;75.46;94573.06;5077472;28;20285;-73
2024/01/06 04:05:56;;;;;;;23.73;21.35;;;;;;;5.89;75.52;94574.53;5076789;28;20203;-73
2024/01/06 04:08:27;;;;;;;19.20;17.27;;;;;;;5.92;75.42;94584.84;5076531;28;20631;-72
2024/01/06 04:10:54;;;;;;;16.60;14.90;;;;;;;5.97;74.74;94573.69;5080102;28;20205;-72
2024/01/06 04:13:24;;;;;;;16.77;15.07;;;;;;;6.02;74.63;94580.88;5081085;28;20212;-72
2024/01/06 04:15:51;;;;;;;20.30;17.60;;;;;;;6.01;74.79;94574.63;5080824;28;20196;-73
2024/01/06 04:18:20;;;;;;;20.83;18.73;;;;;;;6.01;74.75;94576.56;5080907;28;20253;-73
2024/01/06 04:20:48;;;;;;;22.40;20.00;;;;;;;5.96;74.84;94568.56;5081027;28;20208;-72
2024/01/06 04:23:15;;;;;;;23.48;20.98;;;;;;;5.88;74.49;94575.69;5080705;28;20208;-72
2024/01/06 04:25:45;;;;;;;22.73;20.42;;;;;;;5.79;74.56;94575.75;5098281;28;20684;-72
2024/01/06 04:28:13;;;;;;;24.25;21.75;;;;;;;5.79;74.99;94583.94;5078884;28;20262;-73
2024/01/06 04:30:40;;;;;;;22.88;20.67;;;;;;;5.76;75.55;94586.56;5080290;28;20242;-73
2024/01/06 04:33:07;;;;;;;22.33;19.80;;;;;;;5.80;75.72;94592.97;5080329;28;20200;-73
2024/01/06 04:35:40;;;;;;;22.05;19.75;;;;;;;5.81;76.05;94597.31;5081140;28;20192;-72
2024/01/06 04:38:08;;;;;;;23.05;20.63;;;;;;;5.80;75.84;94584.75;5080266;28;20200;-72
2024/01/06 04:40:37;;;;;;;24.70;20.30;;;;;;;5.77;75.51;94596.34;5080888;28;20224;-72
2024/01/06 04:43:09;;;;;;;27.75;22.80;;;;;;;5.71;75.31;94592.25;5078026;28;20219;-71
2024/01/06 04:45:38;;;;;;;26.48;23.17;;;;;;;5.66;75.34;94597.91;5081201;28;20200;-71
2024/01/06 04:48:08;;;;;;;23.67;21.15;;;;;;;5.66;75.70;94600.63;5080847;28;20258;-72
2024/01/06 04:50:35;;;;;;;22.85;20.45;;;;;;;5.69;75.71;94603.50;5080813;28;20211;-72
2024/01/06 04:53:05;;;;;;;22.15;19.85;;;;;;;5.70;75.52;94599.66;5080211;28;20226;-72
2024/01/06 04:55:33;;;;;;;25.27;22.33;;;;;;;5.70;75.43;94601.56;5081034;28;20253;-72
2024/01/06 04:58:03;;;;;;;28.48;25.42;;;;;;;5.69;75.75;94597.22;5079779;28;20677;-72
2024/01/06 05:00:39;;;;;;;28.50;25.60;;;;;;;5.64;75.69;94600.19;5080086;28;20192;-72
2024/01/06 05:03:08;;;;;;;21.35;19.25;;;;;;;5.65;75.67;94585.34;5079604;28;20302;-72
2024/01/06 05:05:36;;;;;;;19.95;17.90;;;;;;;5.68;75.65;94580.03;5080518;28;20192;-72
2024/01/06 05:08:05;;;;;;;25.50;22.10;;;;;;;5.66;76.08;94584.22;5080482;28;20249;-72
2024/01/06 05:10:36;;;;;;;24.45;21.73;;;;;;;5.64;75.96;94583.75;5080145;28;20200;-72
2024/01/06 05:13:05;;;;;;;24.42;21.80;;;;;;;5.61;75.75;94577.00;5080352;28;20299;-72
2024/01/06 05:15:33;;;;;;;25.30;22.60;;;;;;;5.58;75.66;94568.66;5080126;28;20200;-72
2024/01/06 05:18:00;;;;;;;26.45;23.20;;;;;;;5.54;75.75;94568.53;5079745;28;20197;-72
2024/01/06 05:20:27;;;;;;;25.75;22.08;;;;;;;5.53;76.02;94570.47;5079975;28;20246;-72
2024/01/06 05:22:57;;;;;;;28.02;24.73;;;;;;;5.57;75.91;94565.13;5080521;28;20212;-72
2024/01/06 05:25:27;;;;;;;27.58;24.38;;;;;;;5.59;75.71;94567.53;5079581;28;20196;-72
2024/01/06 05:27:55;;;;;;;23.95;21.45;;;;;;;5.58;75.57;94565.94;5075938;28;20266;-72
2024/01/06 05:30:22;;;;;;;26.02;23.30;;;;;;;5.54;75.52;94555.66;5076880;28;20597;-72
2024/01/06 05:32:54;;;;;;;26.60;23.83;;;;;;;5.53;75.83;94553.25;5076991;28;20186;-72
2024/01/06 05:35:22;;;;;;;26.65;23.77;;;;;;;5.52;76.20;94540.72;5076387;28;20293;-72
2024/01/06 05:37:53;;;;;;;31.90;28.58;;;;;;;5.50;76.17;94560.19;5076568;28;20221;-72
2024/01/06 05:40:20;;;;;;;32.42;29.08;;;;;;;5.51;76.47;94550.84;5075673;28;20201;-72
2024/01/06 05:42:47;;;;;;;33.90;30.42;;;;;;;5.56;76.21;94558.06;5075573;28;20221;-72
2024/01/06 05:45:14;;;;;;;32.72;29.42;;;;;;;5.55;76.49;94546.34;5076461;28;20208;-72
2024/01/06 05:47:42;;;;;;;31.48;28.35;;;;;;;5.54;76.28;94557.59;5076430;28;20204;-72
2024/01/06 05:50:11;;;;;;;30.05;26.88;;;;;;;5.58;76.51;94549.53;5076378;28;20584;-72
2024/01/06 05:52:41;;;;;;;29.10;26.10;;;;;;;5.60;76.79;94550.00;5076750;28;20299;-72
2024/01/06 05:55:10;;;;;;;30.45;26.52;;;;;;;5.62;76.55;94558.66;5075916;28;20244;-72
2024/01/06 05:57:37;;;;;;;26.17;23.58;;;;;;;5.64;76.15;94538.06;5076160;28;20205;-72
2024/01/06 06:00:08;;;;;;;25.83;23.05;;;;;;;5.66;75.72;94560.38;5076138;28;20720;-71
2024/01/06 06:02:38;;;;;;;22.50;20.13;;;;;;;5.68;75.92;94551.88;5075789;28;20541;-71
2024/01/06 06:05:10;;;;;;;23.13;20.83;;;;;;;5.69;75.65;94558.94;5075493;28;20197;-70
2024/01/06 06:07:39;;;;;;;22.25;19.98;;;;;;;5.68;75.25;94563.59;5075680;28;20209;-70
2024/01/06 06:10:11;;;;;;;22.75;20.55;;;;;;;5.66;75.07;94552.19;5076054;28;20201;-71
2024/01/06 06:12:39;;;;;;;21.63;19.30;;;;;;;5.69;75.45;94557.00;5075170;28;20307;-71
2024/01/06 06:15:07;;;;;;;21.98;19.33;;;;;;;5.64;75.30;94556.41;5076449;28;20185;-72
2024/01/06 06:17:37;;;;;;;21.80;19.70;;;;;;;5.60;75.14;94542.59;5074769;28;20244;-72
2024/01/06 06:20:06;;;;;;;22.15;19.98;;;;;;;5.59;75.36;94557.38;5075183;28;20212;-72
2024/01/06 06:22:37;;;;;;;22.42;19.95;;;;;;;5.52;75.26;94560.69;5074977;28;20235;-73
2024/01/06 06:25:08;;;;;;;22.77;20.50;;;;;;;5.54;75.78;94557.59;5075392;28;20622;-74
2024/01/06 06:27:36;;;;;;;23.30;20.95;;;;;;;5.52;75.90;94547.00;5075072;28;20266;-69
2024/01/06 06:30:04;;;;;;;22.48;20.17;;;;;;;5.53;75.69;94559.53;5078848;28;20298;-70
2024/01/06 06:32:33;;;;;;;27.08;24.30;;;;;;;5.52;75.51;94557.16;5077445;28;20201;-70
2024/01/06 06:35:00;;;;;;;24.98;22.48;;;;;;;5.48;75.73;94569.84;5078306;28;20672;-70
2024/01/06 06:37:27;;;;;;;23.05;20.70;;;;;;;5.50;75.78;94564.88;5095743;28;20196;-70
2024/01/06 06:39:54;;;;;;;22.30;20.13;;;;;;;5.51;75.74;94553.59;5095932;28;20260;-70
2024/01/06 06:42:23;;;;;;;25.38;22.77;;;;;;;5.51;75.93;94553.59;5095840;28;20242;-70
2024/01/06 06:44:55;;;;;;;24.05;21.50;;;;;;;5.53;76.36;94558.75;5077369;28;20273;-70
2024/01/06 06:47:25;;;;;;;26.60;23.55;;;;;;;5.47;75.36;94551.84;5095503;28;20180;-69
2024/01/06 06:49:52;;;;;;;30.40;27.33;;;;;;;5.44;75.95;94564.25;5078788;28;20204;-70
2024/01/06 06:52:19;;;;;;;36.67;31.30;;;;;;;5.41;75.65;94564.13;5078626;28;20410;-70
2024/01/06 06:54:46;;;;;;;40.65;32.85;;;;;;;5.36;76.00;94567.84;5095412;28;20184;-68
2024/01/06 06:57:13;;;;;;;26.70;23.73;;;;;;;5.35;75.95;94549.06;5077869;28;20226;-69
2024/01/06 06:59:44;;;;;;;29.75;26.20;;;;;;;5.35;75.87;94557.25;5095982;28;20181;-68
2024/01/06 07:02:12;;;;;;;30.95;27.02;;;;;;;5.36;76.14;94562.38;5077867;28;20208;-69
2024/01/06 07:04:40;;;;;;;28.25;23.17;;;;;;;5.39;76.06;94556.25;5078306;28;20208;-69
2024/01/06 07:07:07;;;;;;;28.77;23.00;;;;;;;5.45;76.00;94563.13;5078134;28;20200;-69
2024/01/06 07:09:34;;;;;;;28.50;23.70;;;;;;;5.51;76.12;94542.63;5077742;28;20615;-69
2024/01/06 07:12:01;;;;;;;29.13;23.95;;;;;;;5.59;76.11;94557.38;5077488;28;20253;-69
2024/01/06 07:14:31;;;;;;;32.95;24.77;;;;;;;5.63;75.79;94550.13;5077393;28;20261;-68
2024/01/06 07:16:59;;;;;;;25.67;22.98;;;;;;;5.67;75.74;94556.53;5095430;28;20198;-68
2024/01/06 07:19:26;;;;;;;22.67;20.25;;;;;;;5.72;75.80;94563.72;5077353;28;20627;-68
2024/01/06 07:21:55;;;;;;;23.30;20.50;;;;;;;5.79;75.55;94539.38;5077635;28;20200;-69
2024/01/06 07:24:23;;;;;;;22.20;18.73;;;;;;;5.87;75.61;94554.91;5077164;28;20204;-69
2024/01/06 07:26:53;;;;;;;21.92;19.10;;;;;;;5.90;75.52;94539.75;5075723;28;20257;-68
2024/01/06 07:29:23;;;;;;;19.50;17.40;;;;;;;5.96;75.12;94549.41;5094909;28;20232;-69
2024/01/06 07:31:53;;;;;;;24.10;21.50;;;;;;;6.02;74.74;94548.03;5095244;28;20199;-68
2024/01/06 07:34:25;;;;;;;23.52;21.00;;;;;;;5.99;75.06;94549.53;5077565;28;20611;-68
2024/01/06 07:36:52;;;;;;;18.52;16.63;;;;;;;5.95;74.47;94543.09;5095279;28;20191;-68
2024/01/06 07:39:21;;;;;;;18.05;16.27;;;;;;;6.00;74.26;94542.13;5095178;28;20196;-68
2024/01/06 07:41:48;;;;;;;21.40;17.65;;;;;;;6.03;73.79;94544.19;5077965;28;20608;-68
2024/01/06 07:44:15;;;;;;;18.98;16.98;;;;;;;6.05;73.26;94535.63;5078935;28;20238;-68
2024/01/06 07:46:43;;;;;;;20.60;18.60;;;;;;;6.10;73.20;94541.69;5081685;28;20196;-68
2024/01/06 07:49:11;;;;;;;21.33;19.05;;;;;;;6.13;73.61;94538.25;5081735;28;20192;-67
2024/01/06 07:51:44;;;;;;;19.83;17.73;;;;;;;6.16;73.04;94542.28;5081262;28;20204;-68
2024/01/06 07:54:11;;;;;;;20.75;17.92;;;;;;;6.21;73.42;94548.34;5081031;28;20231;-68
2024/01/06 07:56:41;;;;;;;18.65;16.75;;;;;;;6.27;73.06;94538.75;5081344;28;20197;-68
2024/01/06 07:59:09;;;;;;;16.25;14.15;;;;;;;6.39;72.59;94559.09;5081441;28;20200;-68
2024/01/06 08:01:36;;;;;;;17.38;15.77;;;;;;;6.56;73.06;94547.16;5081361;28;20253;-68
2024/01/06 08:04:05;;;;;;;16.55;14.85;;;;;;;6.66;72.29;94535.78;5081415;28;20262;-68
2024/01/06 08:06:32;;;;;;;17.63;15.77;;;;;;;6.74;72.23;94543.88;5081524;28;20196;-68
2024/01/06 08:09:01;;;;;;;18.48;15.60;;;;;;;6.84;73.10;94542.63;5080797;28;20576;-68
2024/01/06 08:11:32;;;;;;;18.80;17.00;;;;;;;6.94;72.41;94546.88;5080864;28;20211;-70
2024/01/06 08:13:59;;;;;;;16.00;14.45;;;;;;;6.87;72.85;94550.19;5080790;28;20250;-69
2024/01/06 08:16:27;;;;;;;16.98;15.23;;;;;;;6.83;72.44;94527.34;5081448;28;20196;-71
2024/01/06 08:19:02;;;;;;;16.60;14.77;;;;;;;6.82;72.60;94539.44;5080496;28;20192;-69
2024/01/06 08:21:29;;;;;;;18.27;15.68;;;;;;;6.83;72.82;94543.00;5081226;28;20228;-69
2024/01/06 08:24:00;;;;;;;16.33;14.68;;;;;;;6.85;72.35;94526.97;5080699;28;20761;-69
2024/01/06 08:26:27;;;;;;;33.65;30.27;;;;;;;6.85;72.53;94544.22;5080852;28;20209;-70
2024/01/06 08:28:55;;;;;;;69.53;62.97;;;;;;;6.88;72.46;94529.03;5078973;28;20289;-70
2024/01/06 08:31:26;;;;;;;80.10;73.00;;;;;;;6.90;73.17;94538.53;5081218;28;20200;-70
2024/01/06 08:33:53;;;;;;;48.03;43.35;;;;;;;6.94;73.25;94525.75;5098342;28;20280;-70
2024/01/06 08:36:21;;;;;;;64.60;58.58;;;;;;;6.98;73.80;94534.06;5098821;28;20246;-70
2024/01/06 08:38:51;;;;;;;67.57;61.30;;;;;;;7.04;73.90;94546.41;5080966;28;20207;-69
2024/01/06 08:41:22;;;;;;;69.60;63.33;;;;;;;7.08;73.78;94539.09;5080941;28;20219;-69
2024/01/06 08:43:50;;;;;;;75.55;68.35;;;;;;;7.22;73.79;94557.94;5079994;28;20216;-69
2024/01/06 08:46:20;;;;;;;74.90;68.07;;;;;;;7.37;73.68;94542.72;5080894;28;20196;-69
2024/01/06 08:48:47;;;;;;;66.45;60.20;;;;;;;7.45;72.96;94536.31;5080654;28;20557;-69
2024/01/06 08:51:14;;;;;;;63.05;57.00;;;;;;;7.47;72.64;94545.78;5080400;28;20218;-69
2024/01/06 08:53:41;;;;;;;63.42;57.15;;;;;;;7.48;72.12;94535.63;5080815;28;20200;-69
2024/01/06 08:56:10;;;;;;;55.00;49.58;;;;;;;7.56;71.78;94525.66;5079294;28;20204;-69
2024/01/06 08:58:38;;;;;;;51.63;46.13;;;;;;;7.68;72.88;94520.94;5079740;28;20197;-69
2024/01/06 09:01:09;;;;;;;42.42;38.10;;;;;;;7.70;71.87;94540.59;5097553;28;20281;-69
2024/01/06 09:03:38;;;;;;;39.17;35.17;;;;;;;7.71;71.45;94527.69;5097782;28;20212;-69
2024/01/06 09:06:05;;;;;;;40.28;36.13;;;;;;;7.74;71.80;94524.25;5080202;28;20188;-69
2024/01/06 09:08:32;;;;;;;48.38;43.63;;;;;;;7.78;71.65;94511.41;5079650;28;20673;-69
2024/01/06 09:10:59;;;;;;;50.67;45.65;;;;;;;7.80;71.46;94511.06;5080511;28;20228;-69
2024/01/06 09:13:26;;;;;;;52.72;47.63;;;;;;;7.87;71.92;94505.75;5080156;28;20204;-69
2024/01/06 09:15:54;;;;;;;54.05;48.67;;;;;;;7.91;71.46;94506.66;5079501;28;20218;-69
2024/01/06 09:18:22;;;;;;;54.47;49.15;;;;;;;7.91;71.37;94503.91;5079516;28;20189;-69
2024/01/06 09:20:52;;;;;;;36.72;32.95;;;;;;;7.86;70.88;94491.25;5097787;28;20184;-69
2024/01/06 09:23:21;;;;;;;32.30;28.77;;;;;;;7.84;70.42;94506.47;5080542;28;20216;-69
2024/01/06 09:25:49;;;;;;;30.77;27.63;;;;;;;7.77;70.01;94500.75;5079360;28;20196;-68
2024/01/06 09:28:17;;;;;;;31.08;27.77;;;;;;;7.72;70.58;94493.59;5076478;28;20325;-68
2024/01/06 09:30:48;;;;;;;32.85;29.35;;;;;;;7.70;71.20;94482.97;5077106;28;20178;-68
2024/01/06 09:33:17;;;;;;;33.75;30.08;;;;;;;7.72;71.55;94475.16;5076138;28;20204;-68
2024/01/06 09:35:45;;;;;;;35.58;31.88;;;;;;;7.74;71.58;94485.00;5077235;28;20196;-68
2024/01/06 09:38:12;;;;;;;34.28;30.45;;;;;;;7.73;71.01;94478.69;5075937;28;20236;-68
2024/01/06 09:40:44;;;;;;;32.70;29.33;;;;;;;7.75;72.82;94470.13;5076741;28;20349;-69
2024/01/06 09:43:11;;;;;;;33.00;29.58;;;;;;;7.76;72.54;94458.78;5076221;28;20196;-68
2024/01/06 09:45:42;;;;;;;30.27;27.05;;;;;;;7.78;73.12;94451.00;5076186;28;20213;-68
2024/01/06 09:48:14;;;;;;;38.65;34.45;;;;;;;7.77;71.03;94456.84;5075466;28;20205;-68
2024/01/06 09:50:44;;;;;;;45.90;40.97;;;;;;;7.82;70.82;94454.66;5075842;28;20297;-68
2024/01/06 09:53:14;;;;;;;54.25;48.40;;;;;;;7.88;71.25;94445.03;5075835;28;20209;-69
2024/01/06 09:55:41;;;;;;;64.55;58.03;;;;;;;7.91;71.05;94449.78;5075763;28;20250;-69
2024/01/06 09:58:10;;;;;;;58.97;52.83;;;;;;;7.93;71.31;94441.22;5075623;28;20201;-69
2024/01/06 10:00:37;;;;;;;51.83;46.38;;;;;;;7.96;71.20;94437.78;5075188;28;20221;-69
2024/01/06 10:03:04;;;;;;;42.35;37.85;;;;;;;7.99;70.11;94436.25;5075219;28;20182;-69
2024/01/06 10:05:31;;;;;;;33.80;29.08;;;;;;;7.97;69.63;94423.69;5075090;28;20274;-69
2024/01/06 10:08:04;;;;;;;29.10;26.17;;;;;;;7.98;69.72;94427.22;5075475;28;20201;-69
2024/01/06 10:10:32;;;;;;;29.00;24.27;;;;;;;7.98;68.98;94427.22;5075591;28;20212;-69
2024/01/06 10:12:59;;;;;;;27.63;23.55;;;;;;;7.97;69.09;94428.38;5075311;28;20259;-69
2024/01/06 10:15:27;;;;;;;26.50;23.40;;;;;;;7.99;68.99;94415.09;5075491;28;20193;-69
2024/01/06 10:17:55;;;;;;;27.13;23.60;;;;;;;8.01;68.71;94412.00;5075189;28;20246;-68
2024/01/06 10:20:25;;;;;;;27.38;23.48;;;;;;;8.02;68.71;94410.84;5076575;28;20197;-68
2024/01/06 10:22:53;;;;;;;29.05;24.75;;;;;;;8.05;68.80;94416.44;5075385;28;20588;-68
2024/01/06 10:25:28;;;;;;;29.08;22.67;;;;;;;8.08;68.23;94401.19;5074708;28;20319;-68
2024/01/06 10:27:57;;;;;;;25.55;22.83;;;;;;;8.10;67.96;94394.22;5076390;28;20227;-69
2024/01/06 10:30:26;;;;;;;26.42;23.63;;;;;;;8.09;68.05;94403.56;5078293;28;20216;-68
2024/01/06 10:32:55;;;;;;;26.92;24.15;;;;;;;8.13;68.24;94392.69;5079187;28;20196;-68
2024/01/06 10:35:22;;;;;;;25.95;23.23;;;;;;;8.16;68.78;94386.50;5078830;28;20560;-68
2024/01/06 10:37:49;;;;;;;28.83;25.77;;;;;;;8.18;68.05;94381.44;5078571;28;20192;-68
2024/01/06 10:40:17;;;;;;;27.95;25.25;;;;;;;8.19;67.02;94391.28;5078709;28;20291;-68
2024/01/06 10:42:52;;;;;;;30.10;25.02;;;;;;;8.22;66.86;94387.81;5078931;28;20200;-67
2024/01/06 10:45:19;;;;;;;26.35;23.50;;;;;;;8.23;67.23;94374.88;5078327;28;20211;-68
2024/01/06 10:47:46;;;;;;;28.65;23.15;;;;;;;8.27;67.05;94359.28;5078692;28;20196;-68
2024/01/06 10:50:16;;;;;;;24.00;21.33;;;;;;;8.34;67.65;94365.75;5078049;28;20196;-68
2024/01/06 10:52:47;;;;;;;24.20;20.55;;;;;;;8.39;67.60;94360.03;5078928;28;20527;-68
2024/01/06 10:55:20;;;;;;;25.63;19.67;;;;;;;8.43;67.42;94354.63;5078619;28;20290;-68
2024/01/06 10:57:52;;;;;;;20.60;18.20;;;;;;;8.47;66.99;94352.75;5077945;28;20261;-68
2024/01/06 11:00:19;;;;;;;29.27;22.40;;;;;;;8.50;67.03;94334.75;5077798;28;20269;-68
2024/01/06 11:02:52;;;;;;;20.65;17.42;;;;;;;8.50;65.21;94332.00;5078108;28;20200;-68
2024/01/06 11:05:23;;;;;;;17.50;15.52;;;;;;;8.60;66.78;94331.44;5078082;28;20208;-68
2024/01/06 11:07:54;;;;;;;18.70;15.60;;;;;;;8.66;66.71;94324.50;5078008;28;20611;-68
2024/01/06 11:10:25;;;;;;;22.85;16.35;;;;;;;8.70;65.59;94335.59;5077464;28;20235;-68
2024/01/06 11:15:51;;;;;;;20.38;17.58;;;;;;;8.82;65.38;94321.69;5134434;27;20555;-68
2024/01/06 11:18:34;;;;;;;20.52;17.65;;;;;;;8.84;65.82;94317.44;5132751;28;20194;-68
2024/01/06 11:21:21;;;;;;;18.50;16.27;;;;;;;8.91;65.81;94316.81;5132696;28;20252;-68
2024/01/06 11:24:13;;;;;;;21.73;16.75;;;;;;;8.99;65.78;94310.28;5132423;28;20622;-68
2024/01/06 11:26:40;;;;;;;20.95;16.33;;;;;;;9.06;64.95;94313.19;5132956;28;20256;-68
2024/01/06 11:29:12;;;;;;;18.90;16.30;;;;;;;9.11;64.71;94309.34;5133698;27;20176;-68
2024/01/06 11:31:45;;;;;;;17.45;15.63;;;;;;;9.26;65.06;94302.19;5115311;28;20252;-68
2024/01/06 11:34:18;;;;;;;15.90;14.20;;;;;;;9.67;65.92;94288.81;5132904;28;20590;-68